createdAt,value
2022-12-04T00:05:25.678Z,1.1
2022-12-04T00:11:25.651Z,1.1
2022-12-04T00:17:25.675Z,1
2022-12-04T00:23:25.702Z,1.1
2022-12-04T00:29:25.676Z,1.1
2022-12-04T00:35:25.658Z,1.1
2022-12-04T00:41:25.691Z,1.1
2022-12-04T00:47:25.636Z,1
2022-12-04T00:53:25.659Z,1
2022-12-04T00:59:25.728Z,0.9
2022-12-04T01:05:25.706Z,0.9
2022-12-04T01:11:25.655Z,0.8
2022-12-04T01:17:25.677Z,0.9
2022-12-04T01:23:25.664Z,0.6
2022-12-04T01:29:25.655Z,0.6
2022-12-04T01:35:25.671Z,0.5
2022-12-04T01:41:25.645Z,0.4
2022-12-04T01:47:25.657Z,0.3
2022-12-04T01:53:25.687Z,0.3
2022-12-04T01:59:25.629Z,0.4
2022-12-04T02:05:25.655Z,0.2
2022-12-04T02:11:25.663Z,0.3
2022-12-04T02:17:25.641Z,0.2
2022-12-04T02:23:25.643Z,0.1
2022-12-04T02:29:25.672Z,0.2
2022-12-04T02:35:25.636Z,0.2
2022-12-04T02:41:25.648Z,0.2
2022-12-04T02:47:25.701Z,0.2
2022-12-04T02:53:25.657Z,0
2022-12-04T02:59:25.644Z,0.1
2022-12-04T03:05:25.658Z,0.1
2022-12-04T03:11:25.632Z,0.1
2022-12-04T03:17:25.633Z,0.1
2022-12-04T03:23:25.651Z,0.2
2022-12-04T03:29:25.627Z,0.2
2022-12-04T03:35:25.629Z,0.2
2022-12-04T03:41:25.631Z,0.1
2022-12-04T03:47:25.624Z,0.2
2022-12-04T03:53:25.635Z,0.2
2022-12-04T03:59:25.626Z,0.2
2022-12-04T04:05:25.630Z,0.1
2022-12-04T04:11:25.617Z,0.1
2022-12-04T04:17:25.658Z,-0.1
2022-12-04T04:23:25.629Z,-0.1
2022-12-04T04:29:25.622Z,-0.1
2022-12-04T04:35:25.635Z,0
2022-12-04T04:41:25.597Z,-0.2
2022-12-04T04:47:25.634Z,-0.1
2022-12-04T04:53:25.621Z,-0.2
2022-12-04T04:59:25.606Z,-0.2
2022-12-04T05:05:25.606Z,-0.2
2022-12-04T05:11:25.619Z,-0.2
2022-12-04T05:17:25.614Z,-0.2
2022-12-04T05:23:25.603Z,-0.3
2022-12-04T05:29:25.626Z,-0.1
2022-12-04T05:35:25.589Z,-0.1
2022-12-04T05:41:25.631Z,-0.1
2022-12-04T05:47:25.602Z,-0.1
2022-12-04T05:53:25.598Z,0
2022-12-04T05:59:25.592Z,-0.1
2022-12-04T06:05:25.593Z,0
2022-12-04T06:11:25.598Z,0
2022-12-04T06:17:25.599Z,0
2022-12-04T06:23:25.619Z,-0.1
2022-12-04T06:29:25.587Z,-0.3
2022-12-04T06:35:25.613Z,-0.1
2022-12-04T06:41:25.780Z,0.1
2022-12-04T06:47:25.585Z,0.3
2022-12-04T06:53:25.577Z,0.2
2022-12-04T06:59:25.622Z,0.1
2022-12-04T07:05:25.573Z,0.2
2022-12-04T07:11:25.697Z,0.1
2022-12-04T07:17:25.637Z,-0.1
2022-12-04T07:23:25.593Z,0
2022-12-04T07:29:25.586Z,0
2022-12-04T07:35:25.611Z,0
2022-12-04T07:41:25.563Z,0
2022-12-04T07:47:25.568Z,0
2022-12-04T07:53:25.684Z,0
2022-12-04T07:59:25.558Z,0.2
2022-12-04T08:05:25.569Z,0.1
2022-12-04T08:11:25.600Z,0.1
2022-12-04T08:17:25.680Z,0.2
2022-12-04T08:23:25.580Z,0.2
2022-12-04T08:29:25.589Z,0.1
2022-12-04T08:35:25.586Z,0.2
2022-12-04T08:41:25.571Z,0.2
2022-12-04T08:47:25.562Z,0.2
2022-12-04T08:53:25.549Z,0.3
2022-12-04T08:59:25.577Z,0.4
2022-12-04T09:05:25.559Z,0.3
2022-12-04T09:11:25.568Z,0.4
2022-12-04T09:17:25.553Z,0.5
2022-12-04T09:23:25.566Z,0.7
2022-12-04T09:29:25.541Z,0.8
2022-12-04T09:35:25.569Z,0.9
2022-12-04T09:41:25.552Z,0.7
2022-12-04T09:47:25.538Z,0.9
2022-12-04T09:53:25.558Z,0.8
2022-12-04T09:59:25.551Z,1
2022-12-04T10:05:25.527Z,1
2022-12-04T10:11:31.983Z,0.9
2022-12-04T10:17:32.270Z,1.1
2022-12-04T10:23:25.551Z,1
2022-12-04T10:29:25.560Z,1
2022-12-04T10:35:25.550Z,1
2022-12-04T10:41:25.540Z,1.2
2022-12-04T10:47:25.533Z,1.3
2022-12-04T10:53:25.540Z,1.2
2022-12-04T10:59:25.540Z,1.3
2022-12-04T11:05:25.527Z,1.2
2022-12-04T11:11:25.553Z,1.4
2022-12-04T11:17:25.529Z,1.1
2022-12-04T11:23:25.504Z,1.2
2022-12-04T11:29:25.639Z,1.2
2022-12-04T11:35:25.526Z,1.1
2022-12-04T11:41:25.539Z,1.1
2022-12-04T11:47:25.561Z,1.4
2022-12-04T11:53:25.527Z,1.4
2022-12-04T11:59:25.533Z,1.4
2022-12-04T12:05:25.560Z,1.7
2022-12-04T12:11:25.522Z,1.8
2022-12-04T12:17:25.503Z,1.8
2022-12-04T12:23:25.535Z,1.5
2022-12-04T12:29:25.516Z,1.7
2022-12-04T12:35:25.494Z,1.7
2022-12-04T12:41:25.538Z,2
2022-12-04T12:47:25.505Z,1.9
2022-12-04T12:53:25.513Z,2
2022-12-04T12:59:25.543Z,1.8
2022-12-04T13:05:25.505Z,1.9
2022-12-04T13:11:25.511Z,2
2022-12-04T13:17:25.569Z,1.8
2022-12-04T13:23:25.505Z,1.8
2022-12-04T13:29:25.504Z,2
2022-12-04T13:35:25.516Z,1.9
2022-12-04T13:41:25.502Z,1.9
2022-12-04T13:47:25.523Z,1.8
2022-12-04T13:53:25.527Z,1.7
2022-12-04T13:59:25.511Z,1.8
2022-12-04T14:05:25.495Z,1.9
2022-12-04T14:11:25.523Z,2
2022-12-04T14:17:25.538Z,2
2022-12-04T14:23:25.482Z,1.9
2022-12-04T14:29:25.512Z,2
2022-12-04T14:35:25.519Z,2
2022-12-04T14:41:25.507Z,1.9
2022-12-04T14:47:25.520Z,2
2022-12-04T14:53:25.498Z,1.9
2022-12-04T14:59:25.518Z,1.9
2022-12-04T15:05:25.514Z,2
2022-12-04T15:11:25.525Z,2.2
2022-12-04T15:17:25.495Z,2
2022-12-04T15:23:25.559Z,2.1
2022-12-04T15:29:25.525Z,2.3
2022-12-04T15:35:25.514Z,2.3
2022-12-04T15:41:25.522Z,2.4
2022-12-04T15:47:25.514Z,2.3
2022-12-04T15:53:25.467Z,2.4
2022-12-04T15:59:25.523Z,2.4
2022-12-04T16:05:25.486Z,2.1
2022-12-04T16:11:25.494Z,2.5
2022-12-04T16:17:25.531Z,2.5
2022-12-04T16:23:25.476Z,2.7
2022-12-04T16:29:25.493Z,2.6
2022-12-04T16:35:25.494Z,2.5
2022-12-04T16:41:25.497Z,2.5
2022-12-04T16:47:25.480Z,2.4
2022-12-04T16:53:25.519Z,2.5
2022-12-04T16:59:25.492Z,2.3
2022-12-04T17:05:25.477Z,2.1
2022-12-04T17:11:25.519Z,2.1
2022-12-04T17:17:25.497Z,2.2
2022-12-04T17:23:25.488Z,2.3
2022-12-04T17:29:25.499Z,2.5
2022-12-04T17:35:25.511Z,2.6
2022-12-04T17:41:25.505Z,2.7
2022-12-04T17:47:25.527Z,2.6
2022-12-04T17:53:25.475Z,2.8
2022-12-04T17:59:25.714Z,2.8
2022-12-04T18:05:25.520Z,2.9
2022-12-04T18:11:25.471Z,2.7
2022-12-04T18:17:25.494Z,2.9
2022-12-04T18:23:25.515Z,2.8
2022-12-04T18:29:25.496Z,2.8
2022-12-04T18:35:25.508Z,2.7
2022-12-04T18:41:25.500Z,2.8
2022-12-04T18:47:25.487Z,2.6
2022-12-04T18:53:25.504Z,2.6
2022-12-04T18:59:25.502Z,2.7
2022-12-04T19:05:25.485Z,2.8
2022-12-04T19:11:25.466Z,2.3
2022-12-04T19:17:25.521Z,2.4
2022-12-04T19:23:25.486Z,2.6
2022-12-04T19:29:25.473Z,2.6
2022-12-04T19:35:25.501Z,2.5
2022-12-04T19:41:25.512Z,2.7
2022-12-04T19:47:25.513Z,2.6
2022-12-04T19:53:25.504Z,2.7
2022-12-04T19:59:25.483Z,2.2
2022-12-04T20:05:25.450Z,2.3
2022-12-04T20:11:25.499Z,2.5
2022-12-04T20:17:25.467Z,2.3
2022-12-04T20:23:25.478Z,2.6
2022-12-04T20:29:25.500Z,2.5
2022-12-04T20:35:25.464Z,2.3
2022-12-04T20:41:25.476Z,2.2
2022-12-04T20:47:25.485Z,2
2022-12-04T20:53:25.462Z,2.1
2022-12-04T20:59:25.488Z,2.5
2022-12-04T21:05:25.499Z,2.3
2022-12-04T21:11:25.505Z,2.7
2022-12-04T21:17:25.470Z,2.8
2022-12-04T21:23:25.477Z,2.7
2022-12-04T21:29:25.501Z,2.9
2022-12-04T21:35:25.435Z,2.6
2022-12-04T21:41:25.507Z,2.9
2022-12-04T21:47:25.463Z,3
2022-12-04T21:53:25.451Z,3.1
2022-12-04T21:59:25.523Z,3
2022-12-04T22:05:25.447Z,3
2022-12-04T22:11:25.451Z,3
2022-12-04T22:17:25.495Z,2.9
2022-12-04T22:23:25.477Z,2.3
2022-12-04T22:35:25.483Z,2.6
2022-12-04T22:41:25.475Z,2.6
2022-12-04T22:47:25.435Z,2.8
2022-12-04T22:53:25.482Z,3
2022-12-04T22:59:25.462Z,3.1
2022-12-04T23:05:25.507Z,2.8
2022-12-04T23:11:25.486Z,3
2022-12-04T23:17:25.442Z,3
2022-12-04T23:23:25.454Z,2.8
2022-12-04T23:35:25.442Z,2.7
2022-12-04T23:41:25.442Z,3
2022-12-04T23:47:25.482Z,2.7
2022-12-04T23:53:25.438Z,2.7
2022-12-04T23:59:25.437Z,2.5
